sensor_id;sensor_type;location;lat;lon;timestamp;pressure;altitude;pressure_sealevel;temperature;humidity
54592;BME280;40488;48.558;18.150;2023-03-13T00:02:32;99617.19;;;5.74;67.32
54592;BME280;40488;48.558;18.150;2023-03-13T00:05:01;99622.22;;;5.71;67.68
54592;BME280;40488;48.558;18.150;2023-03-13T00:07:29;99636.47;;;5.67;68.02
54592;BME280;40488;48.558;18.150;2023-03-13T00:09:58;99628.16;;;5.73;67.96
54592;BME280;40488;48.558;18.150;2023-03-13T00:12:26;99629.91;;;5.78;68.44
54592;BME280;40488;48.558;18.150;2023-03-13T00:14:55;99621.56;;;5.82;68.51
54592;BME280;40488;48.558;18.150;2023-03-13T00:17:23;99614.88;;;5.86;68.26
54592;BME280;40488;48.558;18.150;2023-03-13T00:19:53;99616.63;;;5.88;68.34
54592;BME280;40488;48.558;18.150;2023-03-13T00:22:22;99615.81;;;5.91;68.00
54592;BME280;40488;48.558;18.150;2023-03-13T00:24:51;99610.75;;;5.89;68.41
54592;BME280;40488;48.558;18.150;2023-03-13T00:27:19;99613.22;;;5.88;68.36
54592;BME280;40488;48.558;18.150;2023-03-13T00:29:48;99608.28;;;5.94;68.42
54592;BME280;40488;48.558;18.150;2023-03-13T00:32:16;99607.41;;;5.92;68.29
54592;BME280;40488;48.558;18.150;2023-03-13T00:34:45;99587.91;;;5.88;68.17
54592;BME280;40488;48.558;18.150;2023-03-13T00:37:15;99584.44;;;5.83;68.32
54592;BME280;40488;48.558;18.150;2023-03-13T00:39:43;99585.25;;;5.82;68.44
54592;BME280;40488;48.558;18.150;2023-03-13T00:42:12;99581.97;;;5.86;68.79
54592;BME280;40488;48.558;18.150;2023-03-13T00:44:40;99583.75;;;5.91;68.82
54592;BME280;40488;48.558;18.150;2023-03-13T00:47:09;99580.47;;;5.97;69.16
54592;BME280;40488;48.558;18.150;2023-03-13T00:49:37;99575.41;;;5.97;68.66
54592;BME280;40488;48.558;18.150;2023-03-13T00:52:06;99570.31;;;5.95;68.77
54592;BME280;40488;48.558;18.150;2023-03-13T00:54:36;99563.56;;;5.94;68.92
54592;BME280;40488;48.558;18.150;2023-03-13T00:57:05;99566.03;;;5.93;69.71
54592;BME280;40488;48.558;18.150;2023-03-13T00:59:33;99562.72;;;5.95;69.63
54592;BME280;40488;48.558;18.150;2023-03-13T01:02:02;99569.47;;;5.95;69.53
54592;BME280;40488;48.558;18.150;2023-03-13T01:04:31;99561.75;;;5.89;70.08
54592;BME280;40488;48.558;18.150;2023-03-13T01:07:00;99564.31;;;5.90;70.36
54592;BME280;40488;48.558;18.150;2023-03-13T01:09:28;99564.34;;;5.92;70.41
54592;BME280;40488;48.558;18.150;2023-03-13T01:11:58;99552.50;;;5.91;70.38
54592;BME280;40488;48.558;18.150;2023-03-13T01:14:29;99553.31;;;5.88;70.36
54592;BME280;40488;48.558;18.150;2023-03-13T01:16:58;99553.34;;;5.90;70.34
54592;BME280;40488;48.558;18.150;2023-03-13T01:19:26;99546.56;;;5.89;69.98
54592;BME280;40488;48.558;18.150;2023-03-13T01:21:56;99538.97;;;5.89;70.45
54592;BME280;40488;48.558;18.150;2023-03-13T01:24:24;99528.81;;;5.87;70.53
54592;BME280;40488;48.558;18.150;2023-03-13T01:26:53;99527.97;;;5.87;69.97
54592;BME280;40488;48.558;18.150;2023-03-13T01:29:24;99526.31;;;5.89;70.12
54592;BME280;40488;48.558;18.150;2023-03-13T01:31:52;99527.13;;;5.88;69.75
54592;BME280;40488;48.558;18.150;2023-03-13T01:34:21;99526.31;;;5.89;70.20
54592;BME280;40488;48.558;18.150;2023-03-13T01:36:50;99528.91;;;5.92;70.31
54592;BME280;40488;48.558;18.150;2023-03-13T01:39:18;99529.78;;;5.94;70.24
54592;BME280;40488;48.558;18.150;2023-03-13T01:41:47;99526.41;;;5.95;70.33
54592;BME280;40488;48.558;18.150;2023-03-13T01:44:18;99533.16;;;5.96;70.21
54592;BME280;40488;48.558;18.150;2023-03-13T01:46:50;99532.34;;;5.97;69.88
54592;BME280;40488;48.558;18.150;2023-03-13T01:49:26;99523.91;;;5.98;70.33
54592;BME280;40488;48.558;18.150;2023-03-13T01:52:07;99529.03;;;5.99;70.21
54592;BME280;40488;48.558;18.150;2023-03-13T01:54:45;99526.44;;;5.98;70.19
54592;BME280;40488;48.558;18.150;2023-03-13T01:57:17;99522.22;;;5.97;70.17
54592;BME280;40488;48.558;18.150;2023-03-13T01:59:50;99516.31;;;5.98;70.28
54592;BME280;40488;48.558;18.150;2023-03-13T02:02:22;99509.50;;;5.94;69.97
54592;BME280;40488;48.558;18.150;2023-03-13T02:04:51;99513.66;;;5.89;69.89
54592;BME280;40488;48.558;18.150;2023-03-13T02:07:22;99517.09;;;5.92;70.05
54592;BME280;40488;48.558;18.150;2023-03-13T02:09:54;99511.16;;;5.92;70.50
54592;BME280;40488;48.558;18.150;2023-03-13T02:12:26;99518.72;;;5.90;70.60
54592;BME280;40488;48.558;18.150;2023-03-13T02:14:56;99510.31;;;5.91;70.57
54592;BME280;40488;48.558;18.150;2023-03-13T02:17:27;99512.78;;;5.87;70.56
54592;BME280;40488;48.558;18.150;2023-03-13T02:19:58;99524.56;;;5.85;71.03
54592;BME280;40488;48.558;18.150;2023-03-13T02:22:28;99515.22;;;5.84;71.16
54592;BME280;40488;48.558;18.150;2023-03-13T02:25:01;99524.56;;;5.85;71.00
54592;BME280;40488;48.558;18.150;2023-03-13T02:27:34;99525.34;;;5.84;71.04
54592;BME280;40488;48.558;18.150;2023-03-13T02:30:06;99536.38;;;5.86;71.25
54592;BME280;40488;48.558;18.150;2023-03-13T02:32:36;99535.59;;;5.88;71.11
54592;BME280;40488;48.558;18.150;2023-03-13T02:35:07;99524.59;;;5.88;71.10
54592;BME280;40488;48.558;18.150;2023-03-13T02:37:37;99523.78;;;5.89;71.00
54592;BME280;40488;48.558;18.150;2023-03-13T02:40:12;99535.56;;;5.87;71.05
54592;BME280;40488;48.558;18.150;2023-03-13T02:42:44;99535.56;;;5.87;70.76
54592;BME280;40488;48.558;18.150;2023-03-13T02:45:13;99530.41;;;5.84;70.94
54592;BME280;40488;48.558;18.150;2023-03-13T02:47:43;99532.19;;;5.86;70.80
54592;BME280;40488;48.558;18.150;2023-03-13T02:50:12;99535.47;;;5.84;70.47
54592;BME280;40488;48.558;18.150;2023-03-13T02:52:42;99521.19;;;5.86;71.09
54592;BME280;40488;48.558;18.150;2023-03-13T02:55:14;99517.84;;;5.87;70.60
54592;BME280;40488;48.558;18.150;2023-03-13T02:57:45;99526.25;;;5.86;70.97
54592;BME280;40488;48.558;18.150;2023-03-13T03:00:14;99526.19;;;5.83;71.07
54592;BME280;40488;48.558;18.150;2023-03-13T03:02:44;99534.56;;;5.79;71.24
54592;BME280;40488;48.558;18.150;2023-03-13T03:05:13;99551.41;;;5.77;71.18
54592;BME280;40488;48.558;18.150;2023-03-13T03:07:42;99552.31;;;5.80;71.37
54592;BME280;40488;48.558;18.150;2023-03-13T03:10:11;99551.41;;;5.77;71.97
54592;BME280;40488;48.558;18.150;2023-03-13T03:12:40;99553.13;;;5.78;71.62
54592;BME280;40488;48.558;18.150;2023-03-13T03:15:11;99558.19;;;5.78;71.58
54592;BME280;40488;48.558;18.150;2023-03-13T03:17:46;99559.88;;;5.79;71.59
54592;BME280;40488;48.558;18.150;2023-03-13T03:20:14;99554.78;;;5.76;71.90
54592;BME280;40488;48.558;18.150;2023-03-13T03:22:43;99566.59;;;5.77;72.11
54592;BME280;40488;48.558;18.150;2023-03-13T03:25:12;99559.78;;;5.73;72.28
54592;BME280;40488;48.558;18.150;2023-03-13T03:27:40;99571.56;;;5.71;72.15
54592;BME280;40488;48.558;18.150;2023-03-13T03:30:11;99575.84;;;5.73;72.68
54592;BME280;40488;48.558;18.150;2023-03-13T03:32:39;99584.31;;;5.77;72.98
54592;BME280;40488;48.558;18.150;2023-03-13T03:35:08;99584.34;;;5.78;72.85
54592;BME280;40488;48.558;18.150;2023-03-13T03:37:36;99591.91;;;5.77;72.64
54592;BME280;40488;48.558;18.150;2023-03-13T03:40:06;99590.25;;;5.79;72.71
54592;BME280;40488;48.558;18.150;2023-03-13T03:42:35;99591.03;;;5.73;72.92
54592;BME280;40488;48.558;18.150;2023-03-13T03:45:04;99584.16;;;5.66;73.06
54592;BME280;40488;48.558;18.150;2023-03-13T03:47:35;99579.00;;;5.62;73.11
54592;BME280;40488;48.558;18.150;2023-03-13T03:50:03;99583.28;;;5.66;73.15
54592;BME280;40488;48.558;18.150;2023-03-13T03:52:42;99591.78;;;5.68;73.60
54592;BME280;40488;48.558;18.150;2023-03-13T03:55:11;99586.75;;;5.71;74.04
54592;BME280;40488;48.558;18.150;2023-03-13T03:57:39;99596.03;;;5.72;74.19
54592;BME280;40488;48.558;18.150;2023-03-13T04:00:13;99600.28;;;5.73;73.79
54592;BME280;40488;48.558;18.150;2023-03-13T04:02:50;99605.31;;;5.70;74.03
54592;BME280;40488;48.558;18.150;2023-03-13T04:05:19;99605.31;;;5.70;74.11
54592;BME280;40488;48.558;18.150;2023-03-13T04:07:48;99610.44;;;5.73;73.99
54592;BME280;40488;48.558;18.150;2023-03-13T04:10:16;99607.84;;;5.70;74.28
54592;BME280;40488;48.558;18.150;2023-03-13T04:12:45;99614.66;;;5.74;74.19
54592;BME280;40488;48.558;18.150;2023-03-13T04:15:13;99607.03;;;5.74;74.23
54592;BME280;40488;48.558;18.150;2023-03-13T04:17:42;99605.41;;;5.76;74.16
54592;BME280;40488;48.558;18.150;2023-03-13T04:20:13;99598.56;;;5.72;74.25
54592;BME280;40488;48.558;18.150;2023-03-13T04:22:42;99599.44;;;5.72;74.33
54592;BME280;40488;48.558;18.150;2023-03-13T04:25:11;99586.78;;;5.72;74.39
54592;BME280;40488;48.558;18.150;2023-03-13T04:27:40;99586.78;;;5.74;74.25
54592;BME280;40488;48.558;18.150;2023-03-13T04:30:09;99590.16;;;5.73;74.24
54592;BME280;40488;48.558;18.150;2023-03-13T04:32:41;99586.69;;;5.68;74.37
54592;BME280;40488;48.558;18.150;2023-03-13T04:35:22;99581.59;;;5.65;74.51
54592;BME280;40488;48.558;18.150;2023-03-13T04:38:11;99594.19;;;5.62;74.75
54592;BME280;40488;48.558;18.150;2023-03-13T04:40:51;99598.38;;;5.60;74.94
54592;BME280;40488;48.558;18.150;2023-03-13T04:43:39;99598.44;;;5.63;74.85
54592;BME280;40488;48.558;18.150;2023-03-13T04:46:08;99599.31;;;5.65;74.90
54592;BME280;40488;48.558;18.150;2023-03-13T04:48:47;99595.84;;;5.60;74.96
54592;BME280;40488;48.558;18.150;2023-03-13T04:51:41;99595.91;;;5.63;75.28
54592;BME280;40488;48.558;18.150;2023-03-13T04:54:20;99598.38;;;5.60;75.29
54592;BME280;40488;48.558;18.150;2023-03-13T04:57:00;99596.69;;;5.60;75.38
54592;BME280;40488;48.558;18.150;2023-03-13T04:59:35;99593.38;;;5.63;75.16
54592;BME280;40488;48.558;18.150;2023-03-13T05:02:14;99595.97;;;5.66;75.05
54592;BME280;40488;48.558;18.150;2023-03-13T05:04:43;99594.31;;;5.68;75.04
54592;BME280;40488;48.558;18.150;2023-03-13T05:07:36;99591.78;;;5.68;75.50
54592;BME280;40488;48.558;18.150;2023-03-13T05:10:29;99597.56;;;5.62;74.95
54592;BME280;40488;48.558;18.150;2023-03-13T05:13:08;99595.03;;;5.61;75.18
54592;BME280;40488;48.558;18.150;2023-03-13T05:15:48;99593.31;;;5.60;74.99
54592;BME280;40488;48.558;18.150;2023-03-13T05:18:27;99590.75;;;5.58;75.49
54592;BME280;40488;48.558;18.150;2023-03-13T05:21:06;99584.84;;;5.58;75.18
54592;BME280;40488;48.558;18.150;2023-03-13T05:24:03;99576.44;;;5.59;75.14
54592;BME280;40488;48.558;18.150;2023-03-13T05:26:37;99579.00;;;5.62;75.57
54592;BME280;40488;48.558;18.150;2023-03-13T05:29:16;99576.47;;;5.62;75.75
54592;BME280;40488;48.558;18.150;2023-03-13T05:32:07;99584.09;;;5.63;75.58
54592;BME280;40488;48.558;18.150;2023-03-13T05:34:41;99582.44;;;5.65;75.39
54592;BME280;40488;48.558;18.150;2023-03-13T05:37:21;99585.78;;;5.64;75.45
54592;BME280;40488;48.558;18.150;2023-03-13T05:40:14;99589.97;;;5.61;75.59
54592;BME280;40488;48.558;18.150;2023-03-13T05:43:05;99588.25;;;5.60;75.56
54592;BME280;40488;48.558;18.150;2023-03-13T05:45:45;99583.25;;;5.63;75.83
54592;BME280;40488;48.558;18.150;2023-03-13T05:48:24;99577.38;;;5.67;75.93
54592;BME280;40488;48.558;18.150;2023-03-13T05:51:04;99582.56;;;5.73;75.80
54592;BME280;40488;48.558;18.150;2023-03-13T05:53:48;99579.25;;;5.75;75.97
54592;BME280;40488;48.558;18.150;2023-03-13T05:56:44;99570.81;;;5.76;76.24
54592;BME280;40488;48.558;18.150;2023-03-13T05:59:25;99575.91;;;5.78;75.92
54592;BME280;40488;48.558;18.150;2023-03-13T06:02:12;99570.91;;;5.82;75.48
54592;BME280;40488;48.558;18.150;2023-03-13T06:04:44;99569.34;;;5.87;76.01
54592;BME280;40488;48.558;18.150;2023-03-13T06:07:13;99576.16;;;5.91;76.00
54592;BME280;40488;48.558;18.150;2023-03-13T06:09:42;99574.44;;;5.90;75.93
54592;BME280;40488;48.558;18.150;2023-03-13T06:12:12;99576.16;;;5.93;76.00
54592;BME280;40488;48.558;18.150;2023-03-13T06:14:40;99572.00;;;5.95;76.03
54592;BME280;40488;48.558;18.150;2023-03-13T06:17:20;99573.69;;;5.96;76.26
54592;BME280;40488;48.558;18.150;2023-03-13T06:19:49;99576.25;;;5.97;76.03
54592;BME280;40488;48.558;18.150;2023-03-13T06:22:17;99575.41;;;5.97;76.25
54592;BME280;40488;48.558;18.150;2023-03-13T06:24:46;99575.44;;;6.00;75.97
54592;BME280;40488;48.558;18.150;2023-03-13T06:27:16;99578.06;;;6.04;75.97
54592;BME280;40488;48.558;18.150;2023-03-13T06:29:45;99573.88;;;6.08;76.16
54592;BME280;40488;48.558;18.150;2023-03-13T06:32:13;99582.34;;;6.10;76.18
54592;BME280;40488;48.558;18.150;2023-03-13T06:34:42;99582.47;;;6.16;75.91
54592;BME280;40488;48.558;18.150;2023-03-13T06:37:10;99575.78;;;6.21;75.82
54592;BME280;40488;48.558;18.150;2023-03-13T06:39:39;99579.25;;;6.26;75.83
54592;BME280;40488;48.558;18.150;2023-03-13T06:42:07;99575.00;;;6.27;75.91
54592;BME280;40488;48.558;18.150;2023-03-13T06:44:37;99573.34;;;6.29;75.95
54592;BME280;40488;48.558;18.150;2023-03-13T06:47:13;99577.59;;;6.28;75.73
54592;BME280;40488;48.558;18.150;2023-03-13T06:50:11;99578.59;;;6.41;75.42
54592;BME280;40488;48.558;18.150;2023-03-13T06:53:08;99588.88;;;6.51;74.88
54592;BME280;40488;48.558;18.150;2023-03-13T06:56:05;99575.63;;;6.70;74.45
54592;BME280;40488;48.558;18.150;2023-03-13T06:58:34;99570.84;;;6.93;74.19
54592;BME280;40488;48.558;18.150;2023-03-13T07:01:10;99575.25;;;7.11;74.26
54592;BME280;40488;48.558;18.150;2023-03-13T07:03:49;99577.88;;;7.20;73.82
54592;BME280;40488;48.558;18.150;2023-03-13T07:06:17;99572.03;;;7.24;73.02
54592;BME280;40488;48.558;18.150;2023-03-13T07:08:46;99576.38;;;7.37;72.46
54592;BME280;40488;48.558;18.150;2023-03-13T07:11:14;99568.13;;;7.56;72.69
54592;BME280;40488;48.558;18.150;2023-03-13T07:13:43;99556.34;;;7.63;71.75
54592;BME280;40488;48.558;18.150;2023-03-13T07:16:13;99559.03;;;7.81;71.28
54592;BME280;40488;48.558;18.150;2023-03-13T07:18:42;99550.63;;;7.89;71.03
54592;BME280;40488;48.558;18.150;2023-03-13T07:21:11;99546.50;;;8.00;70.73
54592;BME280;40488;48.558;18.150;2023-03-13T07:23:40;99554.97;;;8.04;69.93
54592;BME280;40488;48.558;18.150;2023-03-13T07:26:10;99544.00;;;8.09;69.66
54592;BME280;40488;48.558;18.150;2023-03-13T07:28:39;99547.53;;;8.27;68.84
54592;BME280;40488;48.558;18.150;2023-03-13T07:31:09;99545.94;;;8.44;68.45
54592;BME280;40488;48.558;18.150;2023-03-13T07:33:40;99549.38;;;8.52;67.37
54592;BME280;40488;48.558;18.150;2023-03-13T07:36:09;99539.19;;;8.49;67.21
54592;BME280;40488;48.558;18.150;2023-03-13T07:38:37;99540.00;;;8.43;66.32
54592;BME280;40488;48.558;18.150;2023-03-13T07:41:06;99534.03;;;8.40;65.79
54592;BME280;40488;48.558;18.150;2023-03-13T07:43:34;99537.50;;;8.48;65.66
54592;BME280;40488;48.558;18.150;2023-03-13T07:46:03;99530.72;;;8.47;65.21
54592;BME280;40488;48.558;18.150;2023-03-13T07:48:33;99532.44;;;8.57;64.41
54592;BME280;40488;48.558;18.150;2023-03-13T07:51:03;99520.59;;;8.56;64.44
54592;BME280;40488;48.558;18.150;2023-03-13T07:53:37;99519.72;;;8.49;64.25
54592;BME280;40488;48.558;18.150;2023-03-13T07:56:36;99518.03;;;8.56;63.31
54592;BME280;40488;48.558;18.150;2023-03-13T07:59:34;99505.38;;;8.63;62.89
54592;BME280;40488;48.558;18.150;2023-03-13T08:02:45;99507.06;;;8.72;61.93
54592;BME280;40488;48.558;18.150;2023-03-13T08:05:44;99492.69;;;8.83;61.53
54592;BME280;40488;48.558;18.150;2023-03-13T08:08:45;99497.88;;;9.04;60.91
54592;BME280;40488;48.558;18.150;2023-03-13T08:11:47;99500.44;;;9.31;61.12
54592;BME280;40488;48.558;18.150;2023-03-13T08:14:44;99488.59;;;9.55;59.44
54592;BME280;40488;48.558;18.150;2023-03-13T08:17:43;99485.19;;;9.59;59.28
54592;BME280;40488;48.558;18.150;2023-03-13T08:20:41;99490.25;;;9.77;57.79
54592;BME280;40488;48.558;18.150;2023-03-13T08:23:40;99475.78;;;10.03;57.18
54592;BME280;40488;48.558;18.150;2023-03-13T08:26:39;99484.31;;;10.17;56.52
54592;BME280;40488;48.558;18.150;2023-03-13T08:29:08;99479.19;;;10.09;56.20
54592;BME280;40488;48.558;18.150;2023-03-13T08:31:38;99468.97;;;10.08;55.79
54592;BME280;40488;48.558;18.150;2023-03-13T08:34:14;99462.19;;;10.24;55.99
54592;BME280;40488;48.558;18.150;2023-03-13T08:37:22;99467.25;;;10.30;55.73
54592;BME280;40488;48.558;18.150;2023-03-13T08:40:19;99466.44;;;10.14;54.59
54592;BME280;40488;48.558;18.150;2023-03-13T08:43:21;99459.63;;;10.04;54.15
54592;BME280;40488;48.558;18.150;2023-03-13T08:46:16;99465.59;;;10.01;54.62
54592;BME280;40488;48.558;18.150;2023-03-13T08:49:10;99463.03;;;10.06;54.32
54592;BME280;40488;48.558;18.150;2023-03-13T08:51:39;99457.91;;;10.27;53.82
54592;BME280;40488;48.558;18.150;2023-03-13T08:54:12;99458.66;;;10.55;53.35
54592;BME280;40488;48.558;18.150;2023-03-13T08:57:05;99467.91;;;10.75;52.87
54592;BME280;40488;48.558;18.150;2023-03-13T09:00:12;99464.47;;;10.86;52.08
54592;BME280;40488;48.558;18.150;2023-03-13T09:03:02;99456.78;;;10.92;51.44
54592;BME280;40488;48.558;18.150;2023-03-13T09:05:42;99461.00;;;10.99;51.38
54592;BME280;40488;48.558;18.150;2023-03-13T09:08:40;99460.91;;;11.06;51.42
54592;BME280;40488;48.558;18.150;2023-03-13T09:11:34;99454.13;;;11.07;51.50
54592;BME280;40488;48.558;18.150;2023-03-13T09:14:27;99450.72;;;11.05;51.54
54592;BME280;40488;48.558;18.150;2023-03-13T09:17:16;99450.72;;;11.11;51.54
54592;BME280;40488;48.558;18.150;2023-03-13T09:19:45;99441.25;;;11.22;51.53
54592;BME280;40488;48.558;18.150;2023-03-13T09:22:26;99441.28;;;11.20;51.24
54592;BME280;40488;48.558;18.150;2023-03-13T09:24:55;99442.00;;;11.33;51.53
54592;BME280;40488;48.558;18.150;2023-03-13T09:27:23;99442.91;;;11.26;51.17
54592;BME280;40488;48.558;18.150;2023-03-13T09:29:53;99438.72;;;11.17;51.30
54592;BME280;40488;48.558;18.150;2023-03-13T09:32:24;99429.31;;;11.21;50.78
54592;BME280;40488;48.558;18.150;2023-03-13T09:34:52;99436.78;;;11.45;51.55
54592;BME280;40488;48.558;18.150;2023-03-13T09:37:21;99443.50;;;11.57;50.62
54592;BME280;40488;48.558;18.150;2023-03-13T09:39:50;99441.72;;;11.66;50.33
54592;BME280;40488;48.558;18.150;2023-03-13T09:42:19;99439.94;;;11.80;50.74
54592;BME280;40488;48.558;18.150;2023-03-13T09:44:49;99434.88;;;11.74;50.38
54592;BME280;40488;48.558;18.150;2023-03-13T09:47:21;99430.59;;;11.78;49.84
54592;BME280;40488;48.558;18.150;2023-03-13T09:49:53;99424.59;;;11.79;49.59
54592;BME280;40488;48.558;18.150;2023-03-13T09:52:25;99420.28;;;11.84;49.22
54592;BME280;40488;48.558;18.150;2023-03-13T09:54:56;99415.88;;;11.99;49.48
54592;BME280;40488;48.558;18.150;2023-03-13T09:57:29;99410.66;;;12.08;49.32
54592;BME280;40488;48.558;18.150;2023-03-13T10:00:02;99404.16;;;11.80;49.06
54592;BME280;40488;48.558;18.150;2023-03-13T10:02:37;99400.81;;;11.66;49.86
54592;BME280;40488;48.558;18.150;2023-03-13T10:05:09;99402.66;;;11.55;49.98
54592;BME280;40488;48.558;18.150;2023-03-13T10:07:39;99398.50;;;11.43;50.11
54592;BME280;40488;48.558;18.150;2023-03-13T10:10:11;99402.81;;;11.37;50.54
54592;BME280;40488;48.558;18.150;2023-03-13T10:12:42;99396.00;;;11.33;51.05
54592;BME280;40488;48.558;18.150;2023-03-13T10:15:22;99396.91;;;11.32;51.08
54592;BME280;40488;48.558;18.150;2023-03-13T10:17:55;99397.75;;;11.31;50.88
54592;BME280;40488;48.558;18.150;2023-03-13T10:20:26;99389.13;;;11.44;51.35
54592;BME280;40488;48.558;18.150;2023-03-13T10:22:56;99381.06;;;11.83;51.08
54592;BME280;40488;48.558;18.150;2023-03-13T10:25:28;99378.06;;;12.23;50.40
54592;BME280;40488;48.558;18.150;2023-03-13T10:27:57;99374.81;;;12.12;49.75
54592;BME280;40488;48.558;18.150;2023-03-13T10:30:26;99375.00;;;11.93;50.36
54592;BME280;40488;48.558;18.150;2023-03-13T10:32:57;99376.63;;;12.00;50.50
54592;BME280;40488;48.558;18.150;2023-03-13T10:35:32;99378.28;;;12.04;50.52
54592;BME280;40488;48.558;18.150;2023-03-13T10:38:03;99382.38;;;12.21;50.62
54592;BME280;40488;48.558;18.150;2023-03-13T10:40:32;99376.47;;;12.16;50.16
54592;BME280;40488;48.558;18.150;2023-03-13T10:43:02;99378.06;;;12.23;50.29
54592;BME280;40488;48.558;18.150;2023-03-13T10:45:32;99369.34;;;12.39;50.62
54592;BME280;40488;48.558;18.150;2023-03-13T10:48:03;99371.44;;;12.72;50.32
54592;BME280;40488;48.558;18.150;2023-03-13T10:50:42;99387.19;;;13.04;49.88
54592;BME280;40488;48.558;18.150;2023-03-13T10:55:53;99381.06;;;13.14;49.28
54592;BME280;40488;48.558;18.150;2023-03-13T10:58:23;99368.34;;;13.08;49.18
54592;BME280;40488;48.558;18.150;2023-03-13T11:00:54;99367.81;;;12.87;48.96
54592;BME280;40488;48.558;18.150;2023-03-13T11:03:36;99357.03;;;12.66;49.14
54592;BME280;40488;48.558;18.150;2023-03-13T11:06:14;99365.47;;;12.70;49.29
54592;BME280;40488;48.558;18.150;2023-03-13T11:08:54;99354.91;;;12.91;49.27
54592;BME280;40488;48.558;18.150;2023-03-13T11:11:25;99353.41;;;12.79;49.30
54592;BME280;40488;48.558;18.150;2023-03-13T11:14:06;99338.88;;;12.80;49.30
54592;BME280;40488;48.558;18.150;2023-03-13T11:16:36;99334.63;;;12.79;49.46
54592;BME280;40488;48.558;18.150;2023-03-13T11:19:15;99340.63;;;12.76;49.82
54592;BME280;40488;48.558;18.150;2023-03-13T11:21:51;99320.06;;;12.83;50.04
54592;BME280;40488;48.558;18.150;2023-03-13T11:24:26;99322.69;;;12.78;49.73
54592;BME280;40488;48.558;18.150;2023-03-13T11:26:59;99320.81;;;12.89;49.85
54592;BME280;40488;48.558;18.150;2023-03-13T11:29:35;99321.53;;;12.96;50.02
54592;BME280;40488;48.558;18.150;2023-03-13T11:32:10;99304.63;;;12.87;49.38
54592;BME280;40488;48.558;18.150;2023-03-13T11:34:45;99318.28;;;12.88;49.77
54592;BME280;40488;48.558;18.150;2023-03-13T11:37:17;99300.66;;;12.68;49.41
54592;BME280;40488;48.558;18.150;2023-03-13T11:39:49;99299.09;;;12.58;50.16
54592;BME280;40488;48.558;18.150;2023-03-13T11:42:34;99293.97;;;12.58;49.92
54592;BME280;40488;48.558;18.150;2023-03-13T11:45:10;99290.44;;;12.65;50.07
54592;BME280;40488;48.558;18.150;2023-03-13T11:47:46;99285.22;;;12.74;50.23
54592;BME280;40488;48.558;18.150;2023-03-13T11:50:25;99290.88;;;12.93;49.59
54592;BME280;40488;48.558;18.150;2023-03-13T11:53:05;99283.72;;;13.13;49.45
54592;BME280;40488;48.558;18.150;2023-03-13T11:55:40;99287.72;;;13.27;49.04
54592;BME280;40488;48.558;18.150;2023-03-13T12:00:51;99285.75;;;13.41;48.79
54592;BME280;40488;48.558;18.150;2023-03-13T12:03:27;99284.19;;;13.34;48.59
54592;BME280;40488;48.558;18.150;2023-03-13T12:05:59;99291.97;;;13.30;48.64
54592;BME280;40488;48.558;18.150;2023-03-13T12:08:30;99279.00;;;13.37;49.20
54592;BME280;40488;48.558;18.150;2023-03-13T12:11:06;99270.50;;;13.35;49.51
54592;BME280;40488;48.558;18.150;2023-03-13T12:13:37;99275.00;;;13.23;49.19
54592;BME280;40488;48.558;18.150;2023-03-13T12:16:08;99267.56;;;13.09;49.38
54592;BME280;40488;48.558;18.150;2023-03-13T12:18:39;99258.13;;;13.11;49.78
54592;BME280;40488;48.558;18.150;2023-03-13T12:21:11;99247.97;;;13.07;49.24
54592;BME280;40488;48.558;18.150;2023-03-13T12:23:47;99235.13;;;13.08;49.22
54592;BME280;40488;48.558;18.150;2023-03-13T12:26:18;99198.34;;;13.12;49.35
54592;BME280;40488;48.558;18.150;2023-03-13T12:28:49;99190.47;;;13.20;50.00
54592;BME280;40488;48.558;18.150;2023-03-13T12:31:21;99183.59;;;13.23;50.33
54592;BME280;40488;48.558;18.150;2023-03-13T12:33:53;99161.28;;;13.28;50.31
54592;BME280;40488;48.558;18.150;2023-03-13T12:36:25;99156.16;;;13.28;50.04
54592;BME280;40488;48.558;18.150;2023-03-13T12:39:00;99157.66;;;13.38;50.49
54592;BME280;40488;48.558;18.150;2023-03-13T12:41:34;99153.22;;;13.47;50.26
54592;BME280;40488;48.558;18.150;2023-03-13T12:44:08;99170.25;;;13.51;49.86
54592;BME280;40488;48.558;18.150;2023-03-13T12:46:40;99191.47;;;13.56;49.68
54592;BME280;40488;48.558;18.150;2023-03-13T12:51:54;99208.34;;;13.66;49.51
54592;BME280;40488;48.558;18.150;2023-03-13T12:54:39;99208.31;;;13.69;49.80
54592;BME280;40488;48.558;18.150;2023-03-13T12:57:14;99206.59;;;13.68;49.59
54592;BME280;40488;48.558;18.150;2023-03-13T12:59:48;99194.50;;;13.74;50.04
54592;BME280;40488;48.558;18.150;2023-03-13T13:02:20;99189.22;;;13.82;50.65
54592;BME280;40488;48.558;18.150;2023-03-13T13:04:50;99178.97;;;13.80;50.88
54592;BME280;40488;48.558;18.150;2023-03-13T13:07:22;99182.41;;;13.81;51.55
54592;BME280;40488;48.558;18.150;2023-03-13T13:10:12;99183.31;;;13.78;51.14
54592;BME280;40488;48.558;18.150;2023-03-13T13:12:44;99205.47;;;13.81;51.67
54592;BME280;40488;48.558;18.150;2023-03-13T13:15:17;99190.91;;;13.83;52.37
54592;BME280;40488;48.558;18.150;2023-03-13T13:25:45;99179.41;;;13.61;51.66
54592;BME280;40488;48.558;18.150;2023-03-13T13:28:22;99181.09;;;13.62;51.79
54592;BME280;40488;48.558;18.150;2023-03-13T13:30:54;99189.59;;;13.64;51.26
54592;BME280;40488;48.558;18.150;2023-03-13T13:38:47;99186.81;;;13.74;52.98
54592;BME280;40488;48.558;18.150;2023-03-13T13:46:34;99177.13;;;13.87;53.93
54592;BME280;40488;48.558;18.150;2023-03-13T13:49:10;99175.28;;;13.92;53.38
54592;BME280;40488;48.558;18.150;2023-03-13T13:51:41;99159.00;;;13.94;52.52
54592;BME280;40488;48.558;18.150;2023-03-13T13:56:53;99157.06;;;14.04;52.18
54592;BME280;40488;48.558;18.150;2023-03-13T13:59:35;99143.25;;;14.09;53.17
54592;BME280;40488;48.558;18.150;2023-03-13T14:02:16;99138.06;;;14.13;53.48
54592;BME280;40488;48.558;18.150;2023-03-13T14:04:47;99144.84;;;14.15;52.95